Time;durP1;ratioP1;P1;durP2;ratioP2;P2;SDS_P1;SDS_P2;PMS_P1;PMS_P2;Temp;Humidity;BMP_temperature;BMP_pressure;BME280_temperature;BME280_humidity;BME280_pressure;Samples;Min_cycle;Max_cycle;Signal;HPM_P1;HPM_P2
2023/03/06 00:01:32;;;;;;;28.62;13.90;;;;;;;-0.66;59.18;99821.16;1766925;81;21770;-59
2023/03/06 00:04:53;;;;;;;25.25;12.98;;;;;;;-0.68;59.22;99815.08;1830603;78;21710;-58
2023/03/06 00:08:16;;;;;;;24.90;11.48;;;;;;;-0.69;59.27;99806.62;1770861;81;21790;-59
2023/03/06 00:15:48;;;;;;;20.32;10.88;;;;;;;-0.69;59.30;99802.59;1907274;74;22727;-57
2023/03/06 00:19:05;;;;;;;17.27;9.93;;;;;;;-0.75;59.33;99809.80;1881183;76;21351;-58
2023/03/06 00:26:09;;;;;;;16.02;9.48;;;;;;;-0.84;59.29;99807.32;1879049;76;21228;-59
2023/03/06 00:29:31;;;;;;;18.70;10.55;;;;;;;-0.93;58.99;99801.33;1855644;76;22757;-58
2023/03/06 00:33:04;;;;;;;20.82;10.68;;;;;;;-1.01;59.09;99802.87;1749176;80;21300;-59
2023/03/06 00:36:14;;;;;;;19.45;11.22;;;;;;;-1.01;59.32;99802.87;1769881;79;21165;-58
2023/03/06 00:39:29;;;;;;;21.00;12.65;;;;;;;-1.01;59.50;99811.80;1774161;80;21216;-58
2023/03/06 00:43:04;;;;;;;27.05;11.30;;;;;;;-1.03;59.54;99807.02;1715165;81;21134;-59
2023/03/06 00:46:36;;;;;;;24.63;11.38;;;;;;;-1.05;59.60;99796.91;1747365;81;21362;-59
2023/03/06 00:50:21;;;;;;;18.92;11.22;;;;;;;-1.09;59.57;99799.92;1747321;81;21378;-60
2023/03/06 00:53:40;;;;;;;28.77;16.23;;;;;;;-1.14;59.57;99802.13;1732784;81;21133;-59
2023/03/06 00:57:06;;;;;;;26.10;15.32;;;;;;;-1.19;59.64;99800.27;1747745;82;21725;-58
2023/03/06 01:00:22;;;;;;;24.72;13.90;;;;;;;-1.21;59.74;99802.20;1734269;81;21231;-58
2023/03/06 01:03:44;;;;;;;22.73;13.10;;;;;;;-1.23;59.82;99801.45;1732050;81;21189;-59
2023/03/06 01:06:59;;;;;;;23.35;12.47;;;;;;;-1.25;59.85;99804.77;1747554;82;21725;-58
2023/03/06 01:10:22;;;;;;;21.12;11.93;;;;;;;-1.23;59.96;99812.20;1863693;76;22269;-58
2023/03/06 01:13:40;;;;;;;20.72;12.65;;;;;;;-1.29;60.02;99811.32;1768386;79;21707;-58
2023/03/06 01:17:24;;;;;;;23.60;12.95;;;;;;;-1.29;60.13;99792.53;1789688;79;21330;-60
2023/03/06 01:20:46;;;;;;;22.62;13.20;;;;;;;-1.28;60.23;99802.32;1804995;79;21405;-59
2023/03/06 01:24:01;;;;;;;18.12;11.33;;;;;;;-1.27;60.26;99806.70;1789048;79;21829;-59
2023/03/06 01:27:05;;;;;;;19.55;12.20;;;;;;;-1.27;60.29;99804.02;1786354;79;21231;-60
2023/03/06 01:30:42;;;;;;;20.52;12.33;;;;;;;-1.28;60.29;99805.00;1804784;79;21256;-60
2023/03/06 01:34:04;;;;;;;20.12;12.23;;;;;;;-1.28;60.32;99803.66;1788618;79;21784;-59
2023/03/06 01:37:34;;;;;;;19.40;11.65;;;;;;;-1.29;60.37;99803.27;1806411;79;21216;-59
2023/03/06 01:44:26;;;;;;;19.67;11.80;;;;;;;-1.35;60.37;99803.27;1806391;79;21343;-58
2023/03/06 01:47:37;;;;;;;24.25;12.37;;;;;;;-1.38;60.40;99803.97;1788059;79;21425;-59
2023/03/06 01:50:56;;;;;;;23.02;14.25;;;;;;;-1.43;60.33;99802.98;1806200;79;21836;-58
2023/03/06 01:54:24;;;;;;;25.32;12.47;;;;;;;-1.47;60.36;99798.80;1806037;79;21753;-58
2023/03/06 01:58:01;;;;;;;20.43;12.13;;;;;;;-1.49;60.28;99797.21;1858821;76;22195;-59
2023/03/06 02:01:19;;;;;;;22.20;12.65;;;;;;;-1.60;60.29;99793.97;1778714;78;21251;-59
2023/03/06 02:04:48;;;;;;;24.82;14.28;;;;;;;-1.66;60.30;99792.61;1767780;79;21725;-58
2023/03/06 02:08:10;;;;;;;25.62;13.78;;;;;;;-1.72;60.32;99798.44;1775907;80;21248;-61
2023/03/06 02:11:44;;;;;;;20.75;11.48;;;;;;;-1.74;60.32;99790.98;1751582;79;21165;-59
2023/03/06 02:15:27;;;;;;;22.40;12.07;;;;;;;-1.75;60.47;99780.36;1767662;79;21197;-60
2023/03/06 02:18:50;;;;;;;21.77;12.30;;;;;;;-1.73;60.64;99782.46;1763850;80;21224;-60
2023/03/06 02:22:36;;;;;;;23.32;13.68;;;;;;;-1.70;60.79;99782.23;1775516;80;21686;-60
2023/03/06 02:25:56;;;;;;;26.20;13.53;;;;;;;-1.69;60.93;99776.75;1771774;79;21217;-60
2023/03/06 02:29:33;;;;;;;30.90;15.35;;;;;;;-1.65;61.05;99776.05;1773478;79;21172;-59
2023/03/06 02:32:57;;;;;;;30.27;15.68;;;;;;;-1.63;61.15;99772.73;1773124;80;21335;-59
2023/03/06 02:36:41;;;;;;;26.55;14.90;;;;;;;-1.62;61.20;99761.89;1773251;79;21213;-60
2023/03/06 02:50:37;;;;;;;32.45;15.13;;;;;;;-1.66;61.19;99760.42;1804144;76;22907;-60
2023/03/06 02:53:56;;;;;;;30.20;15.60;;;;;;;-1.71;61.26;99762.59;1756105;80;21383;-61
2023/03/06 02:57:47;;;;;;;29.80;14.18;;;;;;;-1.73;61.21;99756.98;1765759;79;21741;-60
2023/03/06 03:01:05;;;;;;;28.75;14.83;;;;;;;-1.70;61.26;99765.63;1851722;76;22261;-59
2023/03/06 03:04:25;;;;;;;25.95;14.43;;;;;;;-1.75;61.31;99761.11;1805847;79;21374;-59
2023/03/06 03:07:49;;;;;;;24.27;13.03;;;;;;;-1.72;61.36;99764.91;1783546;79;21173;-59
2023/03/06 03:11:14;;;;;;;30.32;14.38;;;;;;;-1.68;61.34;99758.80;1808552;78;21176;-59
2023/03/06 03:14:48;;;;;;;28.80;13.83;;;;;;;-1.64;61.36;99760.30;1787115;79;21374;-58
2023/03/06 03:18:21;;;;;;;24.82;13.08;;;;;;;-1.61;61.42;99759.59;1808206;79;21264;-60
2023/03/06 03:21:51;;;;;;;21.93;12.58;;;;;;;-1.54;61.52;99764.02;1804283;79;21693;-60
2023/03/06 03:25:15;;;;;;;26.97;14.23;;;;;;;-1.45;61.57;99761.11;1789263;79;21409;-60
2023/03/06 03:28:43;;;;;;;26.87;14.05;;;;;;;-1.40;61.59;99763.83;1786865;79;21228;-61
2023/03/06 03:35:55;;;;;;;24.00;12.73;;;;;;;-1.25;61.60;99768.02;1783689;79;21271;-59
2023/03/06 03:39:55;;;;;;;22.40;11.48;;;;;;;-1.18;61.66;99765.73;1805457;79;21259;-59
2023/03/06 03:43:41;;;;;;;24.50;14.83;;;;;;;-1.08;61.79;99761.38;1804000;79;21709;-60
2023/03/06 03:47:11;;;;;;;29.87;15.40;;;;;;;-0.97;61.84;99762.73;1806207;79;21229;-59
2023/03/06 03:50:31;;;;;;;30.80;15.90;;;;;;;-0.92;61.88;99753.84;1804757;79;21697;-61
2023/03/06 03:53:44;;;;;;;34.38;15.50;;;;;;;-0.84;61.92;99759.48;1798307;79;21193;-60
2023/03/06 03:56:57;;;;;;;35.15;16.23;;;;;;;-0.78;61.92;99758.99;1788653;79;21825;-58
2023/03/06 04:00:44;;;;;;;40.88;16.60;;;;;;;-0.73;61.92;99746.89;1802269;79;21693;-60
2023/03/06 04:08:02;;;;;;;28.23;15.70;;;;;;;-0.63;61.95;99755.95;1804344;79;21157;-59
2023/03/06 04:11:31;;;;;;;26.55;14.87;;;;;;;-0.57;61.97;99742.53;1785780;79;21374;-58
2023/03/06 04:15:27;;;;;;;26.37;14.68;;;;;;;-0.55;61.98;99736.52;1805763;79;21781;-59
2023/03/06 04:18:50;;;;;;;25.97;13.88;;;;;;;-0.52;62.00;99736.28;1783906;79;21237;-59
2023/03/06 04:22:10;;;;;;;24.63;12.85;;;;;;;-0.48;62.06;99733.25;1786066;79;21140;-58
2023/03/06 04:26:06;;;;;;;24.02;13.22;;;;;;;-0.44;62.09;99723.08;1787542;79;21326;-59
2023/03/06 04:29:55;;;;;;;25.40;15.18;;;;;;;-0.39;62.10;99720.88;1771181;80;21251;-58
2023/03/06 04:33:36;;;;;;;24.98;14.45;;;;;;;-0.32;62.18;99722.11;1775443;80;21374;-61
2023/03/06 04:36:59;;;;;;;27.02;15.03;;;;;;;-0.26;62.25;99723.83;1759462;80;21184;-62
2023/03/06 04:40:34;;;;;;;23.15;12.85;;;;;;;-0.17;62.30;99723.55;1735007;81;21248;-62
2023/03/06 04:43:54;;;;;;;23.65;13.48;;;;;;;-0.10;62.36;99724.77;1775623;80;21737;-58
2023/03/06 04:48:00;;;;;;;24.18;12.88;;;;;;;-0.04;62.39;99725.13;1774598;80;21212;-59
2023/03/06 04:51:59;;;;;;;23.00;12.28;;;;;;;0.07;62.46;99730.09;1751421;79;21204;-58
2023/03/06 04:55:57;;;;;;;20.15;11.73;;;;;;;0.13;62.42;99741.22;1802755;79;21229;-59
2023/03/06 05:00:03;;;;;;;21.05;12.07;;;;;;;0.20;62.45;99749.64;1804961;79;21391;-62
2023/03/06 05:03:38;;;;;;;19.67;11.90;;;;;;;0.21;62.41;99750.86;1783683;79;21240;-61
2023/03/06 05:07:40;;;;;;;20.72;12.35;;;;;;;0.27;62.46;99761.11;1795674;79;21241;-63
2023/03/06 05:11:19;;;;;;;25.32;11.88;;;;;;;0.35;62.43;99760.50;1786672;79;21802;-58
2023/03/06 05:26:14;;;;;;;18.98;10.95;;;;;;;0.71;62.53;99778.48;1851888;75;22656;-58
2023/03/06 05:29:38;;;;;;;29.40;15.32;;;;;;;0.81;62.54;99779.40;1873378;76;22292;-59
2023/03/06 05:33:03;;;;;;;20.30;9.90;;;;;;;0.82;62.54;99782.96;1792285;79;21659;-61
2023/03/06 05:36:31;;;;;;;17.70;9.70;;;;;;;0.87;62.49;99791.52;1790469;79;21401;-62
2023/03/06 05:40:05;;;;;;;15.00;9.75;;;;;;;0.93;62.53;99790.51;1765698;80;21196;-58
2023/03/06 05:47:31;;;;;;;14.43;9.03;;;;;;;1.10;62.55;99802.05;1664776;85;21859;-61
2023/03/06 05:51:09;;;;;;;14.63;8.35;;;;;;;1.20;62.49;99811.07;1718471;82;21252;-62
2023/03/06 05:55:00;;;;;;;16.55;8.38;;;;;;;1.27;62.49;99807.33;1702136;82;21156;-59
2023/03/06 05:58:50;;;;;;;12.98;7.17;;;;;;;1.34;62.42;99804.00;1716630;82;21192;-56
2023/03/06 06:02:02;;;;;;;15.75;7.85;;;;;;;1.44;62.42;99809.45;1711829;82;21265;-57
2023/03/06 06:06:04;;;;;;;17.80;8.33;;;;;;;1.59;62.45;99804.58;1860638;76;22715;-57
2023/03/06 06:22:53;;;;;;;11.57;7.22;;;;;;;1.79;62.38;99810.42;1828505;77;21214;-62
2023/03/06 06:34:34;;;;;;;13.20;7.35;;;;;;;2.02;62.39;99814.63;1783511;79;21137;-57
2023/03/06 06:41:47;;;;;;;11.18;6.17;;;;;;;2.14;62.44;99826.55;1668696;81;21527;-56
2023/03/06 06:45:20;;;;;;;13.80;7.45;;;;;;;2.22;62.46;99823.19;1691276;83;22246;-58
2023/03/06 06:52:33;;;;;;;14.93;7.00;;;;;;;2.33;62.49;99821.21;1739929;79;21222;-64
2023/03/06 06:55:58;;;;;;;11.18;5.47;;;;;;;2.38;62.43;99811.37;1729417;81;21660;-58
2023/03/06 07:12:33;;;;;;;13.62;7.03;;;;;;;2.58;62.46;99812.63;1738089;79;21259;-64
2023/03/06 07:30:42;;;;;;;14.80;6.70;;;;;;;3.00;62.28;99817.27;1804089;76;22363;-56
2023/03/06 07:34:37;;;;;;;13.25;7.12;;;;;;;2.99;62.31;99820.98;1670395;84;21218;-57
2023/03/06 08:33:38;;;;;;;17.00;7.60;;;;;;;4.38;61.72;99802.46;1668078;83;21254;-62
2023/03/06 08:37:29;;;;;;;15.00;7.50;;;;;;;4.40;61.65;99807.23;1726291;78;21722;-55
2023/03/06 08:40:31;;;;;;;14.93;6.62;;;;;;;4.53;61.62;99811.77;1751824;78;21237;-57
2023/03/06 08:44:23;;;;;;;12.75;6.20;;;;;;;4.65;61.60;99821.91;1723764;79;21228;-62
2023/03/06 08:48:06;;;;;;;12.37;7.15;;;;;;;4.56;61.43;99818.27;1723466;80;21143;-56
2023/03/06 08:51:59;;;;;;;13.80;6.42;;;;;;;4.63;61.50;99828.84;1715415;81;21231;-62
2023/03/06 09:31:01;;;;;;;24.82;11.73;;;;;;;5.04;61.33;99842.36;1728033;76;21513;-58
2023/03/06 09:34:46;;;;;;;29.65;14.73;;;;;;;5.13;61.32;99841.91;1668401;79;21607;-61
2023/03/06 09:38:33;;;;;;;36.35;17.37;;;;;;;5.20;61.21;99838.42;1870903;74;22803;-60
2023/03/06 09:42:14;;;;;;;44.18;24.10;;;;;;;5.24;61.33;99841.19;1774000;78;21259;-57
2023/03/06 09:45:22;;;;;;;30.37;16.32;;;;;;;5.36;61.32;99845.36;1764834;78;21251;-61
2023/03/06 09:48:51;;;;;;;22.62;13.15;;;;;;;5.45;61.15;99844.44;1735613;79;21314;-57
2023/03/06 09:55:58;;;;;;;35.10;19.27;;;;;;;5.44;60.97;99848.67;1803118;77;21675;-60
2023/03/06 09:59:30;;;;;;;25.10;16.47;;;;;;;5.33;60.77;99846.16;1800542;77;21223;-56
2023/03/06 10:03:13;;;;;;;22.90;13.65;;;;;;;5.33;60.92;99850.23;1802036;76;21227;-61
2023/03/06 10:06:41;;;;;;;19.55;12.85;;;;;;;5.36;60.91;99849.42;1794716;77;21231;-60
2023/03/06 10:10:21;;;;;;;20.23;13.78;;;;;;;5.32;60.78;99851.25;1783854;78;21812;-60
2023/03/06 10:14:02;;;;;;;21.52;14.18;;;;;;;5.15;60.72;99845.34;1790852;77;21212;-58
2023/03/06 10:17:26;;;;;;;26.05;14.20;;;;;;;5.04;60.79;99839.64;1743948;78;21613;-59
2023/03/06 10:21:29;;;;;;;19.65;13.50;;;;;;;4.93;60.73;99845.26;1784781;77;21294;-58
2023/03/06 10:25:32;;;;;;;19.98;13.88;;;;;;;4.81;60.73;99846.98;1802152;76;21225;-60
2023/03/06 10:29:33;;;;;;;22.42;15.10;;;;;;;4.63;60.77;99849.66;1798632;77;21572;-59
2023/03/06 10:33:03;;;;;;;24.35;16.12;;;;;;;4.53;60.88;99851.06;1799346;77;21724;-60
2023/03/06 10:36:41;;;;;;;22.37;16.37;;;;;;;4.50;60.97;99850.02;1851508;76;22292;-59
2023/03/06 10:39:44;;;;;;;27.80;18.02;;;;;;;4.47;61.03;99846.25;1793788;78;21715;-58
2023/03/06 10:43:03;;;;;;;28.38;17.85;;;;;;;4.46;60.94;99852.69;1811402;79;21184;-59
2023/03/06 10:46:50;;;;;;;23.22;17.48;;;;;;;4.44;60.91;99854.69;1810589;79;21192;-58
2023/03/06 10:50:40;;;;;;;27.45;16.73;;;;;;;4.40;60.95;99860.07;1810328;78;21540;-59
2023/03/06 10:54:30;;;;;;;30.23;20.52;;;;;;;4.39;60.99;99856.98;1811978;77;21717;-54
2023/03/06 10:58:01;;;;;;;29.75;19.10;;;;;;;4.45;60.99;99862.33;1795483;77;21542;-54
2023/03/06 11:06:04;;;;;;;24.23;16.25;;;;;;;4.53;60.91;99859.20;1797136;78;21175;-58
2023/03/06 11:19:41;;;;;;;23.73;14.97;;;;;;;4.66;60.94;99872.92;1626129;85;21838;-57
2023/03/06 11:27:46;;;;;;;19.77;13.00;;;;;;;4.55;60.84;99880.23;1604093;88;21256;-57
2023/03/06 11:31:00;;;;;;;17.27;12.20;;;;;;;4.53;60.89;99886.30;1585509;88;21279;-58
2023/03/06 11:34:38;;;;;;;23.18;14.18;;;;;;;4.58;60.90;99875.03;1622711;86;21889;-58
2023/03/06 12:06:23;;;;;;;12.78;9.28;;;;;;;4.75;60.87;99897.75;1688848;83;20449;-59
2023/03/06 12:10:28;;;;;;;15.18;10.00;;;;;;;4.90;60.73;99894.91;1706470;83;21216;-60
2023/03/06 12:28:49;;;;;;;13.10;8.83;;;;;;;5.54;60.44;99903.21;1759383;78;21536;-62
2023/03/06 12:32:36;;;;;;;14.93;9.88;;;;;;;5.58;60.19;99902.41;1662890;82;22435;-60
2023/03/06 12:44:20;;;;;;;15.68;11.22;;;;;;;5.54;60.09;99922.70;1627341;85;21275;-56
2023/03/06 12:52:01;;;;;;;14.80;9.70;;;;;;;5.72;59.80;99917.61;1695922;79;21325;-56
2023/03/06 13:04:13;;;;;;;14.70;10.35;;;;;;;5.70;59.62;99929.65;1713065;78;21147;-58
2023/03/06 13:11:39;;;;;;;15.00;10.15;;;;;;;5.51;59.45;99940.17;1696000;80;21868;-58
2023/03/06 13:15:21;;;;;;;15.78;10.72;;;;;;;5.52;59.50;99944.58;1643741;83;21372;-57
2023/03/06 13:18:49;;;;;;;14.98;10.40;;;;;;;5.48;59.47;99942.33;1637518;80;21257;-60
2023/03/06 13:22:43;;;;;;;14.68;9.55;;;;;;;5.41;59.48;99943.95;1689147;80;21224;-59
2023/03/06 14:12:34;;;;;;;13.32;10.80;;;;;;;5.14;58.81;99961.64;1726867;79;21336;-58
2023/03/06 14:42:49;;;;;;;16.77;12.80;;;;;;;4.66;58.57;99986.28;1837419;76;22227;-59
2023/03/06 14:46:45;;;;;;;19.07;14.53;;;;;;;4.57;58.62;99997.48;1746122;79;21725;-58
2023/03/06 14:50:55;;;;;;;21.87;14.40;;;;;;;4.53;58.63;99993.34;1778534;79;21240;-61
2023/03/06 14:54:38;;;;;;;27.15;15.43;;;;;;;4.55;58.67;100007.62;1765448;78;21604;-60
2023/03/06 15:09:08;;;;;;;19.80;12.28;;;;;;;4.47;58.52;100024.27;1751392;76;22315;-57
2023/03/06 15:12:49;;;;;;;17.92;11.45;;;;;;;4.41;58.56;100027.05;1666835;82;21332;-60
2023/03/06 15:16:10;;;;;;;15.25;10.95;;;;;;;4.40;58.49;100028.06;1635875;82;21886;-57
2023/03/06 15:19:39;;;;;;;18.60;12.47;;;;;;;4.35;58.39;100029.00;1668472;83;21401;-58
2023/03/06 15:23:49;;;;;;;21.52;14.58;;;;;;;4.33;58.33;100040.95;1644487;85;21298;-59
2023/03/06 15:27:48;;;;;;;21.23;14.05;;;;;;;4.29;58.31;100044.48;1573176;86;21353;-57
2023/03/06 15:31:42;;;;;;;20.72;13.58;;;;;;;4.25;58.33;100053.05;1589748;84;21724;-57
2023/03/06 15:35:21;;;;;;;23.80;15.93;;;;;;;4.21;58.23;100057.03;1622195;86;21648;-59
2023/03/06 15:38:49;;;;;;;31.27;17.42;;;;;;;4.21;58.18;100060.59;1844440;76;22269;-59
2023/03/06 15:42:31;;;;;;;37.48;21.15;;;;;;;4.15;58.13;100061.18;1739585;80;21222;-57
2023/03/06 15:46:05;;;;;;;33.00;20.35;;;;;;;4.14;58.11;100058.58;1772764;81;21738;-57
2023/03/06 15:49:30;;;;;;;38.55;24.35;;;;;;;4.18;58.09;100062.73;1876154;76;23038;-58
2023/03/06 15:57:57;;;;;;;30.80;20.43;;;;;;;4.16;58.09;100062.88;1916215;74;23180;-58
2023/03/06 16:01:24;;;;;;;34.88;21.25;;;;;;;4.12;57.95;100067.37;1848015;76;22284;-57
2023/03/06 16:05:01;;;;;;;44.27;19.67;;;;;;;4.03;57.92;100070.42;1802601;79;21216;-59
2023/03/06 16:08:46;;;;;;;36.68;19.60;;;;;;;3.99;57.91;100081.69;1803793;79;21713;-57
2023/03/06 16:12:43;;;;;;;31.87;18.92;;;;;;;3.91;57.86;100084.24;1803146;79;21220;-59
2023/03/06 16:26:54;;;;;;;36.65;18.40;;;;;;;3.65;57.97;100096.09;1836780;76;22564;-60
2023/03/06 16:37:08;;;;;;;49.90;22.73;;;;;;;3.52;57.87;100107.66;1853337;76;22200;-58
2023/03/06 16:40:36;;;;;;;64.82;32.90;;;;;;;3.41;57.78;100102.36;1757535;80;21244;-59
2023/03/06 16:44:17;;;;;;;70.05;31.27;;;;;;;3.37;57.80;100109.54;1737473;81;21814;-58
2023/03/06 16:47:37;;;;;;;68.75;33.73;;;;;;;3.35;57.88;100105.62;1734449;82;21225;-58
2023/03/06 16:51:27;;;;;;;66.70;31.30;;;;;;;3.35;57.85;100101.56;1714864;82;21268;-59
2023/03/06 16:55:04;;;;;;;71.40;37.73;;;;;;;3.34;57.74;100113.88;1732473;80;21267;-57
2023/03/06 16:58:21;;;;;;;83.50;41.95;;;;;;;3.33;57.76;100106.77;1676227;82;21737;-57
2023/03/06 17:01:41;;;;;;;100.72;46.40;;;;;;;3.31;57.72;100105.55;1710154;82;21288;-58
2023/03/06 17:05:02;;;;;;;108.07;48.00;;;;;;;3.33;57.84;100111.66;1691701;82;21227;-57
2023/03/06 17:08:22;;;;;;;106.03;51.53;;;;;;;3.35;58.02;100118.28;1705298;82;22045;-57
2023/03/06 17:12:04;;;;;;;96.97;46.70;;;;;;;3.32;57.91;100104.55;1690351;84;21256;-57
2023/03/06 17:15:39;;;;;;;108.37;49.15;;;;;;;3.29;57.74;100116.99;1679688;84;21947;-58
2023/03/06 17:22:25;;;;;;;115.80;54.98;;;;;;;3.28;57.90;100111.23;1677684;79;21336;-60
2023/03/06 17:25:46;;;;;;;130.72;62.67;;;;;;;3.27;57.75;100120.32;1655352;86;21665;-59
2023/03/06 17:29:38;;;;;;;127.40;61.73;;;;;;;3.22;57.63;100113.11;1656167;86;21215;-60
2023/03/06 17:33:26;;;;;;;152.72;73.12;;;;;;;3.17;57.59;100116.73;1656628;85;21232;-60
2023/03/06 17:37:02;;;;;;;169.00;84.03;;;;;;;3.17;57.66;100116.73;1688346;83;21232;-59
2023/03/06 17:40:36;;;;;;;156.85;75.60;;;;;;;3.19;57.67;100122.02;1704251;80;21236;-60
2023/03/06 17:43:51;;;;;;;130.22;66.22;;;;;;;3.18;57.71;100127.91;1685684;84;21308;-59
2023/03/06 17:47:09;;;;;;;138.97;69.27;;;;;;;3.17;57.72;100126.20;1685326;84;21248;-59
2023/03/06 17:51:09;;;;;;;143.75;61.75;;;;;;;3.19;57.75;100116.60;1672378;85;21382;-59
2023/03/06 17:54:41;;;;;;;119.90;63.40;;;;;;;3.20;57.89;100125.94;1686103;83;21279;-57
2023/03/06 17:58:20;;;;;;;115.62;59.93;;;;;;;3.20;58.07;100129.13;1655207;86;21251;-58
2023/03/06 18:01:58;;;;;;;114.92;56.68;;;;;;;3.14;57.99;100125.61;1658417;86;21785;-58
2023/03/06 18:05:36;;;;;;;116.00;56.53;;;;;;;3.12;58.04;100135.22;1658351;85;21316;-58
2023/03/06 18:08:56;;;;;;;123.95;63.20;;;;;;;3.06;58.10;100137.95;1657447;86;21239;-56
2023/03/06 18:12:35;;;;;;;120.13;64.32;;;;;;;3.04;58.15;100143.14;1658013;86;21336;-59
2023/03/06 18:16:00;;;;;;;112.83;61.95;;;;;;;3.06;58.25;100146.06;1657795;85;21820;-60
2023/03/06 18:19:20;;;;;;;108.67;56.77;;;;;;;3.09;58.39;100140.89;1656451;85;21772;-60
2023/03/06 18:23:02;;;;;;;104.78;56.48;;;;;;;3.18;58.46;100146.84;1878611;76;22675;-59
2023/03/06 18:26:35;;;;;;;81.85;44.30;;;;;;;3.11;58.43;100151.05;1810717;78;21705;-58
2023/03/06 18:29:58;;;;;;;65.40;36.25;;;;;;;3.06;58.22;100150.59;1805584;79;21263;-60
2023/03/06 18:33:35;;;;;;;54.67;30.72;;;;;;;3.02;58.13;100151.88;1792987;79;21173;-57
2023/03/06 18:47:24;;;;;;;27.67;18.37;;;;;;;3.04;58.49;100156.14;1807031;79;22292;-59
2023/03/06 18:50:55;;;;;;;26.65;15.28;;;;;;;2.99;58.51;100154.84;1751027;80;21193;-57
2023/03/06 18:54:19;;;;;;;19.62;14.75;;;;;;;2.96;58.54;100160.52;1769889;81;21181;-59
2023/03/06 18:57:36;;;;;;;23.85;15.43;;;;;;;2.89;58.49;100170.14;1769951;81;21213;-58
2023/03/06 19:01:00;;;;;;;24.20;15.25;;;;;;;2.84;58.58;100162.92;1769974;80;21718;-57
2023/03/06 19:04:24;;;;;;;21.52;15.03;;;;;;;2.85;58.69;100168.70;1770476;81;21821;-57
2023/03/06 19:07:47;;;;;;;21.65;14.65;;;;;;;2.88;58.76;100173.84;1770097;81;21264;-58
2023/03/06 19:11:02;;;;;;;22.35;15.63;;;;;;;2.87;58.80;100169.44;1726679;80;21433;-60
2023/03/06 19:14:17;;;;;;;23.83;13.90;;;;;;;2.90;58.83;100177.28;1739143;82;21269;-58
2023/03/06 19:17:37;;;;;;;22.10;16.37;;;;;;;2.97;58.87;100168.50;1861594;76;27968;-57
2023/03/06 19:20:59;;;;;;;20.90;15.85;;;;;;;3.03;58.82;100167.09;1772542;80;22044;-58
2023/03/06 19:24:17;;;;;;;26.93;15.93;;;;;;;3.08;58.80;100167.55;1692761;82;21197;-60
2023/03/06 19:27:50;;;;;;;23.27;15.43;;;;;;;3.18;58.82;100165.77;1877266;76;22735;-58
2023/03/06 19:31:07;;;;;;;22.82;16.23;;;;;;;3.15;58.88;100163.82;1785293;79;21267;-59
2023/03/06 19:34:44;;;;;;;27.17;16.50;;;;;;;3.19;58.90;100170.69;1779004;79;21915;-57
2023/03/06 19:38:35;;;;;;;32.42;17.32;;;;;;;3.18;58.86;100160.36;1749081;81;21253;-60
2023/03/06 19:42:38;;;;;;;34.18;19.87;;;;;;;3.20;58.82;100160.22;1765374;80;21357;-59
2023/03/06 19:46:42;;;;;;;53.23;28.32;;;;;;;3.20;58.81;100154.81;1847304;77;21236;-60
2023/03/06 19:50:28;;;;;;;40.88;20.32;;;;;;;3.19;58.87;100160.70;1821027;77;21685;-57
2023/03/06 20:01:32;;;;;;;38.67;19.90;;;;;;;2.99;58.90;100160.25;1836565;78;21212;-57
2023/03/06 20:05:25;;;;;;;55.50;27.05;;;;;;;2.92;59.11;100151.81;1756884;81;21225;-58
2023/03/06 20:09:16;;;;;;;47.10;22.48;;;;;;;2.95;59.37;100150.19;1838051;77;21300;-58
2023/03/06 20:12:32;;;;;;;30.30;17.62;;;;;;;2.97;59.42;100141.95;1733951;81;21722;-59
2023/03/06 20:15:56;;;;;;;32.48;18.55;;;;;;;3.05;59.48;100143.48;1853126;76;22292;-59
2023/03/06 20:19:21;;;;;;;21.45;15.15;;;;;;;2.99;59.47;100149.44;1718316;82;21727;-60
2023/03/06 20:23:04;;;;;;;22.60;14.00;;;;;;;2.95;59.41;100142.08;1793670;79;21225;-59
2023/03/06 20:26:21;;;;;;;25.12;16.02;;;;;;;2.95;59.48;100142.08;1794646;79;21324;-62
2023/03/06 20:30:19;;;;;;;22.30;14.30;;;;;;;2.96;59.55;100142.95;1732258;81;21368;-57
2023/03/06 20:44:15;;;;;;;23.57;14.35;;;;;;;2.99;59.68;100138.63;1860385;76;22322;-57
2023/03/06 20:47:46;;;;;;;30.15;17.50;;;;;;;2.94;59.71;100139.52;1798012;78;21510;-58
2023/03/06 20:51:36;;;;;;;24.37;15.40;;;;;;;3.01;59.72;100133.95;1916099;74;22756;-56
2023/03/06 20:55:19;;;;;;;24.70;16.17;;;;;;;3.01;59.83;100133.95;1865972;75;22246;-59
2023/03/06 20:58:38;;;;;;;30.30;17.23;;;;;;;2.97;59.88;100140.59;1768681;77;21413;-59
2023/03/06 21:02:17;;;;;;;23.07;15.55;;;;;;;2.99;59.91;100135.92;1790356;77;21329;-58
2023/03/06 21:05:53;;;;;;;19.70;14.40;;;;;;;3.01;59.90;100132.08;1801550;78;21750;-61
2023/03/06 21:09:22;;;;;;;24.75;16.65;;;;;;;3.03;59.86;100130.59;1795696;77;21843;-60
2023/03/06 21:12:46;;;;;;;19.30;14.35;;;;;;;2.99;59.73;100131.87;1803117;77;21308;-59
2023/03/06 21:16:25;;;;;;;22.20;14.85;;;;;;;2.97;59.77;100122.54;1801364;78;21225;-58
2023/03/06 21:20:01;;;;;;;21.48;15.55;;;;;;;2.97;59.91;100113.08;1795727;77;21673;-58
2023/03/06 21:23:18;;;;;;;24.60;18.02;;;;;;;3.07;60.07;100110.42;1881501;76;22214;-58
2023/03/06 21:26:51;;;;;;;25.80;16.90;;;;;;;3.02;60.07;100115.37;1805598;79;21293;-57
2023/03/06 21:30:08;;;;;;;22.27;16.05;;;;;;;3.02;60.11;100109.97;1767253;81;21840;-59
2023/03/06 21:33:33;;;;;;;24.15;16.25;;;;;;;3.00;60.11;100116.86;1733359;81;21197;-59
2023/03/06 21:36:46;;;;;;;24.23;16.70;;;;;;;3.01;60.22;100115.02;1805446;79;21311;-59
2023/03/06 21:40:08;;;;;;;26.23;17.67;;;;;;;3.00;60.18;100111.94;1804452;79;21706;-59
2023/03/06 21:43:33;;;;;;;26.90;16.75;;;;;;;2.99;60.13;100107.53;1767347;81;21359;-59
2023/03/06 21:47:01;;;;;;;29.92;19.07;;;;;;;2.98;60.22;100109.38;1885896;76;22223;-57
2023/03/06 21:50:20;;;;;;;26.60;19.15;;;;;;;2.90;60.33;100107.00;1829928;78;21143;-57
2023/03/06 21:53:41;;;;;;;32.13;21.30;;;;;;;2.91;60.45;100103.30;1812242;79;21704;-59
2023/03/06 21:56:57;;;;;;;32.90;21.37;;;;;;;2.93;60.47;100104.02;1878413;76;22178;-58
2023/03/06 22:00:35;;;;;;;32.03;21.00;;;;;;;2.81;60.42;100105.95;1824534;77;21334;-60
2023/03/06 22:04:04;;;;;;;34.43;21.73;;;;;;;2.74;60.41;100109.32;1805588;79;21343;-58
2023/03/06 22:07:23;;;;;;;31.87;20.50;;;;;;;2.63;60.46;100106.17;1805698;79;21666;-57
2023/03/06 22:10:48;;;;;;;31.45;21.87;;;;;;;2.57;60.55;100109.93;1805468;79;21212;-59
2023/03/06 22:14:08;;;;;;;31.73;21.30;;;;;;;2.52;60.61;100108.11;1805798;79;21745;-57
2023/03/06 22:17:23;;;;;;;30.60;20.75;;;;;;;2.50;60.77;100114.13;1805429;79;21765;-57
2023/03/06 22:20:58;;;;;;;31.17;21.23;;;;;;;2.54;60.87;100109.68;1857503;76;22356;-59
2023/03/06 22:24:13;;;;;;;32.83;21.62;;;;;;;2.47;60.92;100118.45;1805517;79;21335;-59
2023/03/06 22:27:29;;;;;;;33.75;22.58;;;;;;;2.39;60.84;100117.77;1766471;81;21761;-59
2023/03/06 22:30:52;;;;;;;32.10;22.20;;;;;;;2.30;60.75;100110.42;1805634;78;21248;-60
2023/03/06 22:34:25;;;;;;;33.48;22.52;;;;;;;2.24;60.75;100108.73;1792455;79;21173;-60
2023/03/06 22:37:47;;;;;;;42.93;25.27;;;;;;;2.14;60.73;100113.22;1750131;81;21173;-58
2023/03/06 22:41:08;;;;;;;47.23;27.30;;;;;;;2.05;60.72;100113.97;1805624;79;21276;-57
2023/03/06 22:44:46;;;;;;;40.73;25.25;;;;;;;1.96;60.82;100111.56;1789318;78;21765;-57
2023/03/06 22:48:05;;;;;;;44.27;27.15;;;;;;;1.92;60.90;100122.75;1805241;79;21153;-57
2023/03/06 22:51:29;;;;;;;40.52;24.98;;;;;;;1.87;60.94;100124.97;1805451;79;21235;-61
2023/03/06 22:54:51;;;;;;;40.60;25.20;;;;;;;1.83;60.98;100131.11;1752164;81;21185;-58
2023/03/06 22:58:45;;;;;;;41.58;25.25;;;;;;;1.80;61.06;100125.97;1791765;79;21315;-60
2023/03/06 23:01:57;;;;;;;36.25;23.75;;;;;;;1.77;61.05;100128.92;1800524;79;21234;-57
2023/03/06 23:05:20;;;;;;;39.67;23.87;;;;;;;1.75;61.07;100122.79;1805007;79;21244;-56
2023/03/06 23:08:49;;;;;;;37.80;23.62;;;;;;;1.75;61.12;100124.62;1726788;81;21375;-57
2023/03/06 23:12:32;;;;;;;34.60;22.13;;;;;;;1.75;61.14;100116.05;1805213;79;21346;-59
2023/03/06 23:16:12;;;;;;;34.70;23.10;;;;;;;1.75;61.27;100113.83;1805241;79;21216;-59
2023/03/06 23:19:52;;;;;;;36.88;23.70;;;;;;;1.69;61.29;100118.39;1764131;81;21225;-60